2FL2 weather

Pbso-West County Jail Heliport
Belle Glade, Florida, United States

Public forecast

Using degrees Fahrenheit for public forecast. Weather courtesy of forecast.io.

Closest aviation weather report (METAR) to Pbso-West County Jail Heliport

Closest report is Palm Beach International Airport, 30.6 nm (56.7 km) E. Retrieved 2020/07/03 15:53 UTC (38 minutes ago):

KPBI 031553Z 25004G15KT 10SM FEW038 SCT250 33/21 A2999 RMK AO2 SLP156 T03280211

Closest aviation forecast (TAF) to Pbso-West County Jail Heliport

Closest forecast is Palm Beach International Airport, 30.6 nm (56.7 km) E. Retrieved 2020/07/03 12:31 UTC (4 hours ago):

TAF KPBI 031126Z 0312/0412 VRB04KT P6SM FEW020 SCT250 FM031700 19010KT P6SM SCT030 SCT200 FM032000 16010KT P6SM VCTS SCT035CB SCT100 BKN250 FM040300 VRB05KT P6SM SCT040 SCT250